Time;durP1;ratioP1;P1;durP2;ratioP2;P2;SDS_P1;SDS_P2;PMS_P1;PMS_P2;Temp;Humidity;BMP_temperature;BMP_pressure;BME280_temperature;BME280_humidity;BME280_pressure;Samples;Min_cycle;Max_cycle;Signal;HPM_P1;HPM_P2
2023/09/11 00:00:18;;;;;;;12.55;8.23;;;19.30;99.90;;;;;;5032717;28;20107;-73
2023/09/11 00:03:04;;;;;;;13.75;8.50;;;19.40;99.90;;;;;;5033077;28;20055;-73
2023/09/11 00:05:50;;;;;;;10.23;8.15;;;19.40;99.90;;;;;;5032185;28;20048;-73
2023/09/11 00:08:36;;;;;;;11.75;8.60;;;19.40;99.90;;;;;;5038481;28;20465;-73
2023/09/11 00:11:23;;;;;;;9.88;8.57;;;19.40;99.90;;;;;;5042383;28;20045;-73
2023/09/11 00:14:10;;;;;;;11.57;8.43;;;19.40;99.90;;;;;;5031606;28;20132;-73
2023/09/11 00:16:56;;;;;;;17.80;9.13;;;19.40;99.90;;;;;;5044328;28;20124;-72
2023/09/11 00:19:42;;;;;;;12.48;8.27;;;19.40;99.90;;;;;;5044591;28;20102;-74
2023/09/11 00:22:28;;;;;;;14.15;8.57;;;19.30;99.90;;;;;;5043854;28;20040;-72
2023/09/11 00:25:14;;;;;;;10.27;8.27;;;19.30;99.90;;;;;;5041497;28;20470;-73
2023/09/11 00:28:00;;;;;;;11.90;8.20;;;19.30;99.90;;;;;;5034274;28;20056;-73
2023/09/11 00:30:48;;;;;;;11.88;8.90;;;19.30;99.90;;;;;;5039304;28;20040;-73
2023/09/11 00:33:33;;;;;;;11.73;7.93;;;19.30;99.90;;;;;;5051108;28;20143;-72
2023/09/11 00:36:19;;;;;;;11.63;8.30;;;19.30;99.90;;;;;;5028997;28;20308;-73
2023/09/11 00:39:05;;;;;;;10.27;8.55;;;19.30;99.90;;;;;;5037879;28;20076;-73
2023/09/11 00:41:51;;;;;;;12.18;8.45;;;19.30;99.90;;;;;;5049135;28;20764;-72
2023/09/11 00:44:37;;;;;;;9.98;8.10;;;19.20;99.90;;;;;;5042454;28;20062;-73
2023/09/11 00:47:23;;;;;;;13.20;8.35;;;19.20;99.90;;;;;;5032536;28;20045;-73
2023/09/11 00:50:10;;;;;;;10.35;8.52;;;19.10;99.90;;;;;;5035513;28;20106;-73
2023/09/11 00:52:55;;;;;;;11.82;9.40;;;19.10;99.90;;;;;;5049020;28;20604;-73
2023/09/11 00:55:44;;;;;;;11.65;8.50;;;19.00;99.90;;;;;;5034816;28;20112;-73
2023/09/11 00:58:30;;;;;;;;;;;19.00;99.90;;;;;;5024360;28;20037;-73
2023/09/11 01:01:15;;;;;;;17.17;8.90;;;18.90;99.90;;;;;;5022178;28;19948;-73
2023/09/11 01:04:03;;;;;;;12.13;8.52;;;18.80;99.90;;;;;;5027579;28;20068;-74
2023/09/11 01:06:49;;;;;;;9.48;7.70;;;18.90;99.90;;;;;;5023794;28;20051;-73
2023/09/11 01:09:35;;;;;;;11.52;8.40;;;18.90;99.90;;;;;;5049806;28;20048;-73
2023/09/11 01:12:21;;;;;;;10.50;8.30;;;18.80;99.90;;;;;;5018168;28;20775;-73
2023/09/11 01:15:07;;;;;;;11.85;7.60;;;18.80;99.90;;;;;;5047132;28;20037;-73
2023/09/11 01:18:09;;;;;;;12.85;9.32;;;18.80;99.90;;;;;;5031846;28;20042;-73
2023/09/11 01:21:10;;;;;;;9.80;8.50;;;18.80;99.90;;;;;;5031562;28;20053;-73
2023/09/11 01:24:02;;;;;;;11.57;8.30;;;18.80;99.90;;;;;;5033356;28;20494;-73
2023/09/11 01:27:44;;;;;;;10.10;8.15;;;18.80;99.90;;;;;;5045704;28;20044;-73
2023/09/11 01:30:30;;;;;;;9.80;7.90;;;18.80;99.90;;;;;;5047787;28;20045;-72
2023/09/11 01:33:16;;;;;;;9.82;7.50;;;18.80;99.90;;;;;;5031124;28;20049;-73
2023/09/11 01:36:02;;;;;;;10.90;7.70;;;18.80;99.90;;;;;;5031571;28;20048;-73
2023/09/11 01:38:48;;;;;;;11.00;7.72;;;18.80;99.90;;;;;;5024354;28;20047;-73
2023/09/11 01:41:35;;;;;;;10.52;7.13;;;18.80;99.90;;;;;;5023034;28;20480;-73
2023/09/11 01:44:25;;;;;;;14.65;8.57;;;18.80;99.90;;;;;;5045851;28;20049;-73
2023/09/11 01:47:14;;;;;;;12.05;7.80;;;18.70;99.90;;;;;;5009866;28;20041;-73
2023/09/11 01:50:01;;;;;;;12.13;7.65;;;18.70;99.90;;;;;;5031377;28;20405;-73
2023/09/11 01:52:49;;;;;;;12.73;8.00;;;18.60;99.90;;;;;;5035039;28;20033;-73
2023/09/11 01:55:35;;;;;;;15.32;8.60;;;18.60;99.90;;;;;;5040079;28;20037;-73
2023/09/11 01:58:21;;;;;;;14.27;9.02;;;18.60;99.90;;;;;;5034777;28;20041;-73
2023/09/11 02:01:07;;;;;;;10.60;8.10;;;18.60;99.90;;;;;;5037805;28;20098;-73
2023/09/11 02:03:53;;;;;;;11.20;8.40;;;18.60;99.90;;;;;;5038233;28;20038;-73
2023/09/11 02:06:39;;;;;;;12.48;7.53;;;18.60;99.90;;;;;;5036455;28;20045;-73
2023/09/11 02:09:25;;;;;;;14.45;8.70;;;18.60;99.90;;;;;;5044222;28;20040;-74
2023/09/11 02:12:11;;;;;;;15.02;7.70;;;18.70;99.90;;;;;;5036482;28;20063;-74
2023/09/11 02:14:57;;;;;;;9.93;8.10;;;18.70;99.90;;;;;;5020779;28;20079;-74
2023/09/11 02:17:42;;;;;;;14.15;8.30;;;18.70;99.90;;;;;;5048860;28;20116;-74
2023/09/11 02:20:28;;;;;;;13.75;8.00;;;18.70;99.90;;;;;;5038503;28;20083;-72
2023/09/11 02:23:15;;;;;;;11.77;7.60;;;18.70;99.90;;;;;;5024887;28;20052;-73
2023/09/11 02:26:01;;;;;;;13.60;8.45;;;18.70;99.90;;;;;;5033546;28;20036;-73
2023/09/11 02:28:47;;;;;;;13.25;9.00;;;18.70;99.90;;;;;;5037411;28;20041;-73
2023/09/11 02:31:33;;;;;;;11.65;8.00;;;18.70;99.90;;;;;;5034254;28;20619;-73
2023/09/11 02:34:19;;;;;;;14.10;7.93;;;18.70;99.90;;;;;;5034003;28;20128;-73
2023/09/11 02:37:05;;;;;;;9.20;7.35;;;18.70;99.90;;;;;;5023895;28;20044;-73
2023/09/11 02:39:51;;;;;;;12.20;7.68;;;18.70;99.90;;;;;;5034641;28;20406;-73
2023/09/11 02:42:37;;;;;;;10.95;7.32;;;18.70;99.90;;;;;;5028854;28;20036;-73
2023/09/11 02:45:24;;;;;;;12.05;8.35;;;18.70;99.90;;;;;;5027645;28;20041;-73
2023/09/11 02:48:11;;;;;;;13.53;7.97;;;18.60;99.90;;;;;;5025628;28;20083;-73
2023/09/11 02:50:56;;;;;;;12.02;7.88;;;18.60;99.90;;;;;;5027801;28;20431;-73
2023/09/11 02:53:42;;;;;;;10.15;7.88;;;18.60;99.90;;;;;;5038066;28;20045;-73
2023/09/11 02:56:28;;;;;;;11.27;7.50;;;18.60;99.90;;;;;;5042598;28;20041;-73
2023/09/11 02:59:14;;;;;;;11.85;7.55;;;18.50;99.90;;;;;;5025004;28;20750;-73
2023/09/11 03:02:01;;;;;;;15.15;7.75;;;18.40;99.90;;;;;;5037236;28;20041;-72
2023/09/11 03:04:50;;;;;;;9.77;7.88;;;18.50;99.90;;;;;;5033538;28;20065;-73
2023/09/11 03:07:36;;;;;;;10.57;8.07;;;18.50;99.90;;;;;;5048352;28;20041;-72
2023/09/11 03:10:22;;;;;;;11.43;7.65;;;18.40;99.90;;;;;;5024398;28;20393;-73
2023/09/11 03:13:08;;;;;;;11.13;8.18;;;18.40;99.90;;;;;;5034089;28;20041;-73
2023/09/11 03:15:54;;;;;;;12.00;7.38;;;18.40;99.90;;;;;;5031899;28;20110;-73
2023/09/11 03:18:40;;;;;;;13.82;7.97;;;18.40;99.90;;;;;;5048318;28;20033;-73
2023/09/11 03:21:26;;;;;;;11.85;8.55;;;18.40;99.90;;;;;;5024811;28;20049;-73
2023/09/11 03:24:12;;;;;;;12.02;8.00;;;18.40;99.90;;;;;;5052454;28;20044;-73
2023/09/11 03:27:12;;;;;;;11.38;8.48;;;18.40;99.90;;;;;;5046357;28;20755;-73
2023/09/11 03:29:58;;;;;;;12.88;8.68;;;18.40;99.90;;;;;;5049465;28;20263;-73
2023/09/11 03:32:44;;;;;;;11.57;8.80;;;18.40;99.90;;;;;;5048330;28;20346;-73
2023/09/11 03:35:30;;;;;;;11.57;8.20;;;18.40;99.90;;;;;;5048616;28;20055;-73
2023/09/11 03:38:16;;;;;;;11.80;8.02;;;18.30;99.90;;;;;;5054448;28;20465;-72
2023/09/11 03:41:03;;;;;;;10.68;7.72;;;18.20;99.90;;;;;;5048422;28;20055;-73
2023/09/11 03:43:49;;;;;;;13.02;8.00;;;18.20;99.90;;;;;;5058160;28;20778;-73
2023/09/11 03:46:35;;;;;;;19.60;7.90;;;18.20;99.90;;;;;;5029561;28;20045;-73
2023/09/11 03:49:21;;;;;;;11.00;7.95;;;18.10;99.90;;;;;;5046945;28;20034;-74
2023/09/11 03:52:07;;;;;;;11.23;7.63;;;18.10;99.90;;;;;;5035433;28;20104;-73
2023/09/11 03:54:53;;;;;;;10.98;7.43;;;18.00;99.90;;;;;;5060443;28;20037;-74
2023/09/11 03:57:39;;;;;;;13.48;8.23;;;18.00;99.90;;;;;;5058460;28;20048;-72
2023/09/11 04:00:25;;;;;;;13.05;8.00;;;17.90;99.90;;;;;;5048587;28;20044;-73
2023/09/11 04:03:12;;;;;;;11.57;8.10;;;17.90;99.90;;;;;;5031715;28;20149;-72
2023/09/11 04:05:58;;;;;;;14.48;8.85;;;17.90;99.90;;;;;;5086086;28;20465;-73
2023/09/11 04:08:44;;;;;;;14.63;8.60;;;17.80;99.90;;;;;;5048094;28;20218;-73
2023/09/11 04:11:31;;;;;;;9.63;7.70;;;17.80;99.90;;;;;;5037963;28;20063;-72
2023/09/11 04:14:17;;;;;;;13.00;8.75;;;17.80;99.90;;;;;;5044024;28;20042;-72
2023/09/11 04:17:03;;;;;;;10.73;7.95;;;17.70;99.90;;;;;;5043465;28;20451;-73
2023/09/11 04:19:49;;;;;;;12.93;7.72;;;17.70;99.90;;;;;;5054138;28;20081;-73
2023/09/11 04:22:35;;;;;;;18.58;7.70;;;17.70;99.90;;;;;;5030391;28;20153;-73
2023/09/11 04:25:22;;;;;;;11.10;8.00;;;17.70;99.90;;;;;;5052983;28;20060;-73
2023/09/11 04:28:08;;;;;;;11.75;8.27;;;17.60;99.90;;;;;;5046187;28;20064;-73
2023/09/11 04:30:54;;;;;;;9.90;8.00;;;17.60;99.90;;;;;;5057226;28;20052;-73
2023/09/11 04:33:40;;;;;;;10.52;8.45;;;17.60;99.90;;;;;;5046634;28;20048;-73
2023/09/11 04:36:26;;;;;;;11.88;8.40;;;17.60;99.90;;;;;;5054036;28;20069;-72
2023/09/11 04:39:13;;;;;;;10.35;7.75;;;17.60;99.90;;;;;;5025526;28;20632;-73
2023/09/11 04:41:59;;;;;;;13.70;9.38;;;17.60;99.90;;;;;;5034349;28;20041;-73
2023/09/11 04:44:45;;;;;;;12.07;9.45;;;17.50;99.90;;;;;;5033989;28;20053;-73
2023/09/11 04:47:31;;;;;;;16.52;10.40;;;17.50;99.90;;;;;;5014047;28;20064;-74
2023/09/11 04:50:17;;;;;;;17.42;11.10;;;17.50;99.90;;;;;;5039943;28;20036;-73
2023/09/11 04:53:03;;;;;;;16.50;10.75;;;17.50;99.90;;;;;;5052449;28;20091;-73
2023/09/11 04:55:49;;;;;;;13.68;9.70;;;17.50;99.90;;;;;;5045297;28;20056;-73
2023/09/11 04:58:35;;;;;;;16.75;10.13;;;17.50;99.90;;;;;;5033067;28;20049;-73
2023/09/11 05:01:21;;;;;;;14.98;9.73;;;17.50;99.90;;;;;;5020368;28;20068;-73
2023/09/11 05:04:07;;;;;;;12.93;9.27;;;17.50;99.90;;;;;;5022455;28;20075;-73
2023/09/11 05:06:53;;;;;;;12.27;9.30;;;17.50;99.90;;;;;;5014970;28;20057;-73
2023/09/11 05:09:39;;;;;;;13.25;9.45;;;17.50;99.90;;;;;;5019318;28;20061;-74
2023/09/11 05:12:25;;;;;;;15.65;9.15;;;17.50;99.90;;;;;;5022777;28;20418;-73
2023/09/11 05:15:12;;;;;;;14.32;8.45;;;17.50;99.90;;;;;;5032114;28;20041;-73
2023/09/11 05:17:59;;;;;;;18.10;9.67;;;17.50;99.90;;;;;;5033540;28;20033;-73
2023/09/11 05:20:46;;;;;;;11.52;9.43;;;17.50;99.90;;;;;;5030282;28;20053;-73
2023/09/11 05:23:32;;;;;;;14.45;10.57;;;17.60;99.90;;;;;;5019267;28;20037;-73
2023/09/11 05:26:18;;;;;;;16.42;9.40;;;17.50;99.90;;;;;;5016139;28;20379;-73
2023/09/11 05:29:05;;;;;;;15.73;10.45;;;17.50;99.90;;;;;;5031489;28;20087;-74
2023/09/11 05:31:51;;;;;;;13.50;10.38;;;17.50;99.90;;;;;;5025152;28;20034;-73
2023/09/11 05:34:37;;;;;;;19.58;11.30;;;17.50;99.90;;;;;;5023332;28;20042;-73
2023/09/11 05:37:22;;;;;;;14.73;11.60;;;17.50;99.90;;;;;;5024710;28;20049;-73
2023/09/11 05:40:09;;;;;;;19.67;11.63;;;17.50;99.90;;;;;;5030588;28;20041;-73
2023/09/11 05:42:55;;;;;;;17.30;11.52;;;17.60;99.90;;;;;;5029275;28;20134;-73
2023/09/11 05:45:41;;;;;;;19.60;12.70;;;17.50;99.90;;;;;;5030738;28;20045;-73
2023/09/11 05:48:27;;;;;;;17.15;12.52;;;17.50;99.90;;;;;;5030702;28;20038;-73
2023/09/11 05:51:14;;;;;;;18.85;12.45;;;17.50;99.90;;;;;;5026249;28;20219;-73
2023/09/11 05:54:00;;;;;;;19.02;11.75;;;17.50;99.90;;;;;;5023862;28;20420;-73
2023/09/11 05:56:45;;;;;;;17.00;13.35;;;17.60;99.90;;;;;;5017046;28;20046;-73
2023/09/11 05:59:31;;;;;;;17.25;12.43;;;17.60;99.90;;;;;;5032022;28;20037;-72
2023/09/11 06:02:17;;;;;;;17.35;13.15;;;17.60;99.90;;;;;;5031740;28;20045;-73
2023/09/11 06:05:05;;;;;;;20.50;14.13;;;17.60;99.90;;;;;;5031054;28;20485;-72
2023/09/11 06:07:52;;;;;;;19.60;14.15;;;17.70;99.90;;;;;;5011929;28;20030;-72
2023/09/11 06:10:38;;;;;;;17.52;13.27;;;17.70;99.90;;;;;;5032784;28;20075;-72
2023/09/11 06:13:23;;;;;;;20.40;14.40;;;17.70;99.90;;;;;;5040863;28;20034;-73
2023/09/11 06:16:09;;;;;;;18.75;14.38;;;17.70;99.90;;;;;;5017909;28;20042;-73
2023/09/11 06:18:57;;;;;;;19.70;14.25;;;17.80;99.90;;;;;;5030853;28;20090;-72
2023/09/11 06:21:46;;;;;;;22.30;14.15;;;17.80;99.90;;;;;;5041317;28;20041;-73
2023/09/11 06:24:32;;;;;;;23.15;14.38;;;17.90;99.90;;;;;;5014976;28;20040;-73
2023/09/11 06:27:18;;;;;;;15.90;13.88;;;18.00;99.90;;;;;;5050318;28;20042;-73
2023/09/11 06:30:05;;;;;;;27.50;15.35;;;18.00;99.90;;;;;;5020222;28;20484;-72
2023/09/11 06:32:51;;;;;;;21.55;15.82;;;18.10;99.90;;;;;;5031497;28;20045;-73
2023/09/11 06:35:43;;;;;;;22.27;16.90;;;18.10;99.90;;;;;;5031062;28;20659;-73
2023/09/11 06:38:29;;;;;;;22.75;15.80;;;18.20;99.90;;;;;;5051884;28;20459;-73
2023/09/11 06:41:15;;;;;;;20.92;15.65;;;18.30;99.90;;;;;;5037325;28;20144;-73
2023/09/11 06:44:02;;;;;;;24.23;17.25;;;18.40;99.90;;;;;;5014639;28;20041;-74
2023/09/11 06:46:48;;;;;;;26.08;17.23;;;18.40;99.90;;;;;;5024451;28;20049;-73
2023/09/11 06:49:34;;;;;;;23.33;17.60;;;18.40;99.90;;;;;;5044933;28;20456;-73
2023/09/11 06:52:20;;;;;;;21.95;16.45;;;18.50;99.90;;;;;;5014882;28;20030;-74
2023/09/11 06:55:07;;;;;;;22.33;16.27;;;18.50;99.90;;;;;;5023729;28;20072;-73
2023/09/11 06:57:57;;;;;;;20.10;16.35;;;18.60;99.90;;;;;;5055612;28;20038;-74
2023/09/11 07:00:43;;;;;;;20.38;16.17;;;18.70;99.90;;;;;;5004793;28;20075;-73
2023/09/11 07:03:29;;;;;;;21.23;15.13;;;18.70;99.90;;;;;;5029909;28;20450;-73
2023/09/11 07:06:15;;;;;;;21.17;14.48;;;18.80;99.90;;;;;;5030250;28;20785;-74
2023/09/11 07:09:04;;;;;;;17.88;14.40;;;18.90;99.90;;;;;;5030194;28;20041;-74
2023/09/11 07:11:50;;;;;;;17.35;14.30;;;19.00;99.90;;;;;;5013893;28;20045;-73
2023/09/11 07:14:36;;;;;;;20.63;14.05;;;19.10;99.90;;;;;;5023370;28;20040;-74
2023/09/11 07:17:22;;;;;;;18.45;14.05;;;19.20;99.90;;;;;;5013013;28;20041;-74
2023/09/11 07:20:12;;;;;;;22.02;15.32;;;19.20;99.90;;;;;;5015231;28;20576;-73
2023/09/11 07:22:58;;;;;;;24.08;14.45;;;19.30;99.90;;;;;;5030455;28;20080;-73
2023/09/11 07:25:44;;;;;;;17.48;13.52;;;19.40;99.90;;;;;;5029129;28;20083;-72
2023/09/11 07:28:29;;;;;;;20.60;14.20;;;19.50;99.90;;;;;;5014250;28;20043;-74
2023/09/11 07:31:15;;;;;;;17.98;13.32;;;19.60;99.90;;;;;;5028509;28;20332;-74
2023/09/11 07:34:02;;;;;;;18.05;12.50;;;19.60;99.90;;;;;;5029802;28;20048;-73
2023/09/11 07:36:49;;;;;;;20.13;13.65;;;19.70;99.90;;;;;;5028435;28;20041;-73
2023/09/11 07:39:35;;;;;;;16.15;13.32;;;19.80;99.90;;;;;;5019328;28;20059;-73
2023/09/11 07:42:21;;;;;;;28.30;15.13;;;19.90;99.90;;;;;;5027923;28;20790;-75
2023/09/11 07:45:07;;;;;;;20.10;13.68;;;20.00;99.90;;;;;;5039520;28;20061;-76
2023/09/11 07:47:54;;;;;;;21.90;13.07;;;20.10;99.90;;;;;;5026277;28;20049;-76
2023/09/11 07:50:40;;;;;;;18.67;13.18;;;20.20;99.90;;;;;;5030330;28;20076;-76
2023/09/11 07:53:26;;;;;;;19.83;13.57;;;20.30;99.90;;;;;;5019971;28;20128;-75
2023/09/11 07:56:12;;;;;;;16.92;12.18;;;20.40;99.90;;;;;;5026383;28;20529;-74
2023/09/11 07:59:00;;;;;;;17.50;12.77;;;20.50;99.90;;;;;;5016941;28;20104;-75
2023/09/11 08:01:46;;;;;;;20.58;14.23;;;20.60;99.90;;;;;;5037857;28;20046;-74
2023/09/11 08:04:32;;;;;;;18.88;12.30;;;20.70;99.90;;;;;;5017293;28;20037;-73
2023/09/11 08:07:18;;;;;;;18.35;12.80;;;20.80;99.90;;;;;;5029087;28;20139;-74
2023/09/11 08:10:05;;;;;;;15.88;11.52;;;20.90;99.90;;;;;;5047783;28;20049;-73
2023/09/11 08:12:51;;;;;;;16.25;11.23;;;21.10;99.90;;;;;;5011731;28;20458;-74
2023/09/11 08:15:37;;;;;;;14.32;11.77;;;21.20;99.90;;;;;;5027977;28;20048;-74
2023/09/11 08:18:23;;;;;;;15.30;10.73;;;21.20;99.90;;;;;;5016981;28;20045;-73
2023/09/11 08:21:09;;;;;;;18.55;11.02;;;21.30;99.90;;;;;;5032583;28;20037;-73
2023/09/11 08:23:55;;;;;;;15.30;10.90;;;21.40;99.90;;;;;;5019117;28;20052;-73
2023/09/11 08:26:41;;;;;;;19.73;10.43;;;21.50;99.90;;;;;;5031627;28;20053;-73
2023/09/11 08:29:27;;;;;;;15.40;10.80;;;21.60;99.90;;;;;;5030044;28;20754;-73
2023/09/11 08:32:13;;;;;;;15.07;10.55;;;21.70;99.90;;;;;;5032271;28;20090;-74
2023/09/11 08:34:59;;;;;;;14.43;10.05;;;21.80;99.90;;;;;;5025258;28;20038;-74
2023/09/11 08:37:45;;;;;;;18.30;10.32;;;22.00;99.90;;;;;;5034121;28;20037;-74
2023/09/11 08:40:31;;;;;;;14.98;9.50;;;22.10;99.90;;;;;;5027558;28;20038;-73
2023/09/11 08:43:17;;;;;;;15.43;9.02;;;22.30;99.90;;;;;;5025677;28;20037;-74
2023/09/11 08:46:03;;;;;;;18.63;9.18;;;22.50;99.90;;;;;;5013813;28;20053;-74
2023/09/11 08:48:53;;;;;;;15.52;8.65;;;22.40;99.90;;;;;;5015005;28;20037;-74
2023/09/11 08:51:43;;;;;;;14.45;8.82;;;22.50;99.90;;;;;;5018413;28;20041;-73
2023/09/11 08:54:33;;;;;;;18.52;8.50;;;22.70;99.90;;;;;;5012787;28;20746;-74
2023/09/11 08:57:21;;;;;;;12.27;8.48;;;22.70;99.90;;;;;;5013567;28;20068;-73
2023/09/11 09:00:08;;;;;;;;;;;22.70;99.90;;;;;;5026761;28;20037;-73
2023/09/11 09:02:54;;;;;;;11.35;7.57;;;22.90;99.90;;;;;;5032225;28;20205;-73
2023/09/11 09:05:40;;;;;;;14.75;8.48;;;23.00;99.90;;;;;;5012950;28;20120;-74
2023/09/11 09:08:26;;;;;;;14.68;7.65;;;23.20;99.90;;;;;;5012859;28;20152;-73
2023/09/11 09:11:12;;;;;;;13.02;7.35;;;23.20;99.90;;;;;;5027259;28;20042;-73
2023/09/11 09:13:58;;;;;;;12.43;7.50;;;23.30;99.90;;;;;;5008542;28;20468;-74
2023/09/11 09:16:45;;;;;;;18.65;7.95;;;23.50;99.90;;;;;;5024406;28;20045;-75
2023/09/11 09:19:33;;;;;;;18.88;7.70;;;23.50;99.90;;;;;;5013980;28;20037;-73
2023/09/11 09:22:19;;;;;;;20.77;7.78;;;23.60;99.90;;;;;;5019959;28;20052;-74
2023/09/11 09:25:05;;;;;;;18.40;6.80;;;23.80;99.90;;;;;;5039985;28;20180;-74
2023/09/11 09:27:51;;;;;;;17.90;7.35;;;23.80;99.90;;;;;;5027704;28;20580;-75
2023/09/11 09:30:37;;;;;;;25.20;7.20;;;23.90;99.90;;;;;;5007958;28;20421;-74
2023/09/11 09:33:24;;;;;;;18.17;6.30;;;24.10;99.90;;;;;;5006213;28;20120;-74
2023/09/11 09:36:10;;;;;;;17.95;6.68;;;24.20;99.90;;;;;;5004468;28;20050;-74
2023/09/11 09:38:56;;;;;;;26.58;6.85;;;24.30;99.90;;;;;;5033442;28;20046;-75
2023/09/11 09:41:53;;;;;;;18.02;6.40;;;24.50;99.90;;;;;;5020164;28;20779;-75
2023/09/11 09:44:40;;;;;;;23.00;6.10;;;24.50;99.90;;;;;;5024112;28;20038;-74
2023/09/11 09:47:26;;;;;;;23.40;6.43;;;24.80;99.90;;;;;;5012048;28;20288;-74
2023/09/11 09:50:12;;;;;;;22.55;6.40;;;24.80;99.90;;;;;;5025479;28;20120;-75
2023/09/11 09:52:58;;;;;;;16.23;6.68;;;24.90;99.60;;;;;;5026150;28;20037;-74
2023/09/11 09:55:44;;;;;;;21.58;6.35;;;25.10;99.10;;;;;;5011156;28;20166;-75
2023/09/11 09:58:40;;;;;;;21.05;6.50;;;25.30;97.70;;;;;;5011685;28;20119;-75
2023/09/11 10:01:26;;;;;;;19.95;6.18;;;25.50;97.70;;;;;;5011476;28;20091;-75
2023/09/11 10:04:15;;;;;;;20.25;6.88;;;25.50;97.70;;;;;;5026749;28;20038;-74
2023/09/11 10:07:02;;;;;;;23.80;7.45;;;25.60;98.10;;;;;;5021577;28;20080;-75
2023/09/11 10:09:48;;;;;;;19.33;7.07;;;25.80;97.10;;;;;;5014414;28;20501;-75
2023/09/11 10:12:34;;;;;;;19.60;6.47;;;26.00;97.00;;;;;;5023437;28;20034;-75
2023/09/11 10:15:21;;;;;;;21.10;6.40;;;26.20;97.50;;;;;;5029849;28;20057;-75
2023/09/11 10:18:09;;;;;;;21.73;6.88;;;26.20;96.50;;;;;;5024428;28;20176;-77
2023/09/11 10:20:55;;;;;;;29.45;6.80;;;26.30;96.80;;;;;;5010968;28;20053;-76
2023/09/11 10:23:40;;;;;;;21.50;7.28;;;26.40;97.20;;;;;;5025425;28;20049;-76
2023/09/11 10:26:49;;;;;;;21.98;6.57;;;26.40;97.10;;;;;;5009762;28;20057;-77
2023/09/11 10:29:43;;;;;;;17.38;6.22;;;26.50;96.50;;;;;;5012280;28;20042;-77
2023/09/11 10:32:37;;;;;;;24.70;6.35;;;26.70;96.50;;;;;;5025530;28;20095;-76
2023/09/11 10:35:25;;;;;;;30.67;7.30;;;26.90;96.10;;;;;;5019478;28;20193;-77
2023/09/11 10:38:11;;;;;;;24.35;6.95;;;27.00;95.90;;;;;;5005855;28;20038;-77
2023/09/11 10:40:58;;;;;;;22.23;6.68;;;27.10;94.90;;;;;;5012347;28;20073;-76
2023/09/11 10:43:45;;;;;;;22.67;6.45;;;27.30;95.40;;;;;;5027548;28;20042;-77
2023/09/11 10:46:31;;;;;;;25.48;6.38;;;27.40;95.20;;;;;;5025576;28;20053;-78
2023/09/11 10:49:22;;;;;;;27.00;7.05;;;27.50;95.20;;;;;;5013553;28;20037;-78
2023/09/11 10:52:08;;;;;;;24.88;6.88;;;27.70;93.90;;;;;;5025838;28;20038;-76
2023/09/11 10:54:55;;;;;;;21.55;7.40;;;27.70;94.50;;;;;;5009548;28;20042;-77
2023/09/11 10:57:41;;;;;;;28.55;7.38;;;27.80;94.90;;;;;;5012981;28;20376;-77
2023/09/11 11:00:27;;;;;;;25.02;6.22;;;27.90;94.10;;;;;;5024921;28;20045;-76
2023/09/11 11:03:14;;;;;;;28.33;6.75;;;28.00;92.90;;;;;;5022450;28;20046;-76
2023/09/11 11:06:00;;;;;;;23.50;5.80;;;28.30;92.00;;;;;;5025687;28;20416;-77
2023/09/11 11:08:47;;;;;;;22.20;5.85;;;28.40;91.30;;;;;;5019556;28;20609;-76
2023/09/11 11:11:33;;;;;;;24.40;6.45;;;28.40;91.40;;;;;;4997075;28;20041;-76
2023/09/11 11:14:21;;;;;;;19.10;5.28;;;28.50;91.40;;;;;;5012411;28;20040;-76
2023/09/11 11:17:10;;;;;;;21.00;5.82;;;28.60;91.20;;;;;;5011257;28;20060;-76
2023/09/11 11:19:59;;;;;;;23.92;5.85;;;28.60;90.90;;;;;;5016771;28;20037;-77
2023/09/11 11:22:46;;;;;;;14.90;4.88;;;28.70;91.40;;;;;;5025166;28;20060;-78
2023/09/11 11:25:32;;;;;;;21.88;5.43;;;28.90;90.70;;;;;;5005636;28;20355;-78
2023/09/11 11:28:21;;;;;;;15.15;5.40;;;28.80;90.40;;;;;;5005244;28;20107;-78
2023/09/11 11:31:08;;;;;;;17.40;5.30;;;29.00;90.70;;;;;;4998396;28;20042;-77
2023/09/11 11:33:54;;;;;;;15.30;4.75;;;29.10;90.40;;;;;;5005757;28;20042;-76
2023/09/11 11:36:40;;;;;;;15.40;4.57;;;29.10;89.50;;;;;;4998782;28;20056;-77
2023/09/11 11:39:27;;;;;;;18.65;5.13;;;29.10;89.20;;;;;;5010624;28;20046;-77
2023/09/11 11:42:13;;;;;;;20.17;5.22;;;29.10;88.90;;;;;;5025925;28;20120;-77
2023/09/11 11:45:18;;;;;;;12.43;5.07;;;29.20;88.80;;;;;;5001151;28;20053;-78
2023/09/11 11:48:04;;;;;;;17.77;4.95;;;29.30;89.30;;;;;;5025071;28;20120;-75
2023/09/11 11:50:50;;;;;;;17.45;4.57;;;29.50;87.90;;;;;;5006061;28;20099;-76
2023/09/11 11:53:36;;;;;;;13.35;4.43;;;29.60;86.60;;;;;;5034818;28;20449;-76
2023/09/11 11:56:22;;;;;;;19.00;4.90;;;29.50;86.40;;;;;;5004271;28;20041;-76
2023/09/11 11:59:08;;;;;;;19.73;4.70;;;29.60;85.60;;;;;;5036247;28;20041;-75
2023/09/11 12:01:54;;;;;;;12.75;4.57;;;29.50;85.60;;;;;;5020732;28;20052;-75
2023/09/11 12:04:43;;;;;;;15.18;5.00;;;29.60;86.00;;;;;;5015067;28;20042;-74
2023/09/11 12:07:29;;;;;;;17.73;5.03;;;29.70;86.10;;;;;;5028012;28;20096;-75
2023/09/11 12:10:15;;;;;;;15.73;4.60;;;29.70;83.80;;;;;;5023782;28;20057;-75
2023/09/11 12:13:01;;;;;;;17.67;4.93;;;30.00;83.60;;;;;;5004105;28;20041;-76
2023/09/11 12:15:57;;;;;;;17.23;4.43;;;30.10;83.10;;;;;;5012780;28;20050;-75
2023/09/11 12:18:43;;;;;;;12.25;4.18;;;30.30;83.60;;;;;;5019965;28;20092;-76
2023/09/11 12:21:30;;;;;;;17.33;4.30;;;30.30;82.90;;;;;;5014979;28;20049;-77
2023/09/11 12:24:19;;;;;;;20.13;4.70;;;30.30;81.50;;;;;;5027000;28;20108;-75
2023/09/11 12:27:05;;;;;;;11.77;4.47;;;30.50;81.80;;;;;;5015144;28;20058;-75
2023/09/11 12:29:53;;;;;;;14.98;4.60;;;30.50;80.70;;;;;;5030003;28;20598;-74
2023/09/11 12:32:39;;;;;;;12.52;4.30;;;30.50;81.60;;;;;;5010952;28;20525;-75
2023/09/11 12:35:32;;;;;;;20.77;5.07;;;30.60;82.10;;;;;;5027855;28;20752;-74
2023/09/11 12:38:18;;;;;;;16.92;5.05;;;30.40;81.10;;;;;;4998958;28;20045;-75
2023/09/11 12:41:04;;;;;;;15.45;4.97;;;30.60;82.40;;;;;;5020439;28;20874;-75
2023/09/11 12:43:50;;;;;;;14.25;4.55;;;30.80;80.70;;;;;;5021074;28;20043;-76
2023/09/11 12:46:36;;;;;;;15.20;5.07;;;30.90;79.40;;;;;;5009848;28;20066;-74
2023/09/11 12:49:22;;;;;;;13.73;4.10;;;30.80;79.70;;;;;;5027191;28;20121;-76
2023/09/11 12:52:08;;;;;;;17.85;4.45;;;30.90;80.00;;;;;;5011917;28;20038;-76
2023/09/11 12:54:54;;;;;;;15.25;4.95;;;31.10;79.10;;;;;;5006719;28;20045;-75
2023/09/11 12:57:40;;;;;;;9.75;4.18;;;31.20;80.10;;;;;;5000956;28;20052;-75
2023/09/11 13:00:34;;;;;;;10.88;3.97;;;31.30;79.20;;;;;;5022635;28;20041;-76
2023/09/11 13:03:21;;;;;;;16.85;5.50;;;31.50;79.00;;;;;;5013213;28;20038;-77
2023/09/11 13:06:07;;;;;;;16.58;4.75;;;31.60;78.30;;;;;;5036738;28;20068;-76
2023/09/11 13:08:54;;;;;;;15.68;4.63;;;31.70;77.70;;;;;;5016417;28;20081;-76
2023/09/11 13:11:41;;;;;;;15.00;4.50;;;31.90;76.50;;;;;;5028052;28;20068;-77
2023/09/11 13:14:27;;;;;;;12.77;4.35;;;32.20;76.10;;;;;;5025542;28;20046;-77
2023/09/11 13:17:13;;;;;;;14.88;4.40;;;31.90;75.80;;;;;;5009399;28;20071;-77
2023/09/11 13:19:59;;;;;;;15.45;4.30;;;31.80;75.80;;;;;;5006626;28;20048;-76
2023/09/11 13:22:45;;;;;;;16.70;4.25;;;32.10;75.30;;;;;;5013065;28;20627;-75
2023/09/11 13:25:31;;;;;;;13.63;4.50;;;32.10;76.80;;;;;;4989238;28;20057;-76
2023/09/11 13:28:18;;;;;;;14.77;4.32;;;32.20;75.90;;;;;;5013772;28;20041;-76
2023/09/11 13:31:03;;;;;;;17.02;4.50;;;32.20;75.80;;;;;;5040474;28;20116;-76
2023/09/11 13:33:50;;;;;;;18.98;4.68;;;32.40;74.90;;;;;;5026083;28;20672;-76
2023/09/11 13:36:36;;;;;;;13.40;4.35;;;32.50;75.10;;;;;;5011412;28;20512;-76
2023/09/11 13:39:22;;;;;;;21.20;4.55;;;32.50;75.00;;;;;;5025909;28;20045;-75
2023/09/11 13:42:08;;;;;;;18.73;4.15;;;32.70;75.20;;;;;;5039533;28;20115;-77
2023/09/11 13:44:55;;;;;;;17.58;4.47;;;33.20;75.10;;;;;;5014762;28;20048;-76
2023/09/11 13:47:41;;;;;;;14.75;4.38;;;33.10;73.90;;;;;;5026177;28;20044;-76
2023/09/11 13:50:28;;;;;;;13.48;4.15;;;33.20;73.70;;;;;;5013880;28;20049;-76
2023/09/11 13:53:14;;;;;;;15.63;5.10;;;33.20;72.20;;;;;;5012503;28;20042;-75
2023/09/11 13:55:59;;;;;;;13.43;4.70;;;32.90;72.90;;;;;;5021702;28;20148;-76
2023/09/11 13:58:47;;;;;;;13.90;4.50;;;32.80;74.30;;;;;;5013008;28;20084;-75
2023/09/11 14:01:33;;;;;;;19.75;4.85;;;33.10;74.60;;;;;;5015053;28;20042;-75
2023/09/11 14:04:19;;;;;;;13.43;3.95;;;33.10;73.80;;;;;;5010573;28;20049;-75
2023/09/11 14:07:05;;;;;;;10.90;4.45;;;33.10;73.80;;;;;;5011344;28;20104;-76
2023/09/11 14:09:51;;;;;;;17.35;4.72;;;32.70;73.60;;;;;;5013391;28;20042;-76
2023/09/11 14:12:37;;;;;;;16.73;4.45;;;32.50;74.00;;;;;;4995143;28;20042;-75
2023/09/11 14:15:24;;;;;;;22.02;4.90;;;32.60;74.30;;;;;;5019870;28;20055;-75